Time,TemperatureF,DewpointF,PressureIn,WindDirection,WindDirectionDegrees,WindSpeedMPH,WindSpeedGustMPH,Humidity,HourlyPrecipIn,Conditions,Clouds,dailyrainin,SoftwareType,DateUTC
2013-04-21 00:03:00,41.0,39.0,26.91,ESE,109,10.0,11.0,91,0.00,,,-99.99,,2013-04-21 05:03:00,
2013-04-21 00:08:00,40.0,37.0,26.91,ESE,110,9.0,11.0,91,0.00,,,-99.99,,2013-04-21 05:08:00,
2013-04-21 00:13:00,40.0,37.0,26.91,ESE,107,10.0,11.0,91,0.00,,,-99.99,,2013-04-21 05:13:00,
2013-04-21 00:18:00,40.0,37.0,26.91,ESE,107,10.0,11.0,92,0.00,,,-99.99,,2013-04-21 05:18:00,
2013-04-21 00:23:00,39.0,37.0,26.91,ESE,109,9.0,10.0,92,0.00,,,-99.99,,2013-04-21 05:23:00,
2013-04-21 00:28:00,39.0,37.0,26.92,ESE,103,9.0,10.0,92,0.00,,,-99.99,,2013-04-21 05:28:00,
2013-04-21 00:33:00,39.0,37.0,26.92,ESE,104,9.0,9.0,92,0.00,,,-99.99,,2013-04-21 05:33:00,
2013-04-21 00:38:00,38.0,36.0,26.92,ESE,107,8.0,9.0,93,0.00,,,-99.99,,2013-04-21 05:38:00,
2013-04-21 00:43:00,38.0,36.0,26.92,ESE,110,9.0,9.0,93,0.00,,,-99.99,,2013-04-21 05:43:00,
2013-04-21 00:48:00,38.0,36.0,26.92,ESE,106,8.0,9.0,93,0.00,,,-99.99,,2013-04-21 05:48:00,
2013-04-21 00:53:00,38.0,36.0,26.92,ESE,106,8.0,8.0,93,0.00,,,-99.99,,2013-04-21 05:53:00,
2013-04-21 00:58:00,37.0,36.0,26.92,East,97,7.0,7.0,93,0.00,,,-99.99,,2013-04-21 05:58:00,
2013-04-21 01:03:00,37.0,36.0,26.92,East,97,7.0,7.0,93,0.00,,,-99.99,,2013-04-21 06:03:00,
2013-04-21 01:08:00,37.0,36.0,26.92,ESE,106,6.0,7.0,94,0.00,,,-99.99,,2013-04-21 06:08:00,
2013-04-21 01:13:00,37.0,36.0,26.92,ESE,104,7.0,8.0,94,0.00,,,-99.99,,2013-04-21 06:13:00,
2013-04-21 01:18:00,37.0,36.0,26.92,ESE,104,8.0,8.0,94,0.00,,,-99.99,,2013-04-21 06:18:00,
2013-04-21 01:23:00,37.0,36.0,26.92,ESE,102,8.0,8.0,94,0.00,,,-99.99,,2013-04-21 06:23:00,
2013-04-21 01:28:00,37.0,36.0,26.92,East,96,8.0,8.0,94,0.00,,,-99.99,,2013-04-21 06:28:00,
2013-04-21 01:33:00,36.0,34.0,26.92,East,93,7.0,8.0,94,0.00,,,-99.99,,2013-04-21 06:33:00,
2013-04-21 01:38:00,36.0,34.0,26.92,East,92,6.0,7.0,94,0.00,,,-99.99,,2013-04-21 06:38:00,
2013-04-21 01:43:00,36.0,34.0,26.92,East,90,6.0,7.0,94,0.00,,,-99.99,,2013-04-21 06:43:00,
2013-04-21 01:48:00,36.0,36.0,26.92,East,99,6.0,6.0,95,0.00,,,-99.99,,2013-04-21 06:48:00,
2013-04-21 01:53:00,36.0,36.0,26.92,East,100,7.0,7.0,95,0.00,,,-99.99,,2013-04-21 06:53:00,
2013-04-21 01:58:00,37.0,36.0,26.92,East,96,6.0,6.0,95,0.00,,,-99.99,,2013-04-21 06:58:00,
2013-04-21 02:03:00,37.0,36.0,26.92,East,96,6.0,6.0,95,0.00,,,-99.99,,2013-04-21 07:03:00,
2013-04-21 02:08:00,36.0,36.0,26.92,East,93,5.0,6.0,95,0.00,,,-99.99,,2013-04-21 07:08:00,
2013-04-21 02:13:00,36.0,36.0,26.92,East,87,5.0,6.0,95,0.00,,,-99.99,,2013-04-21 07:13:00,
2013-04-21 02:18:00,36.0,36.0,26.92,East,89,5.0,6.0,95,0.00,,,-99.99,,2013-04-21 07:18:00,
2013-04-21 02:23:00,36.0,36.0,26.92,North,0,0.0,0.0,95,0.00,,,-99.99,,2013-04-21 07:23:00,
2013-04-21 02:28:00,36.0,36.0,26.92,North,0,0.0,0.0,95,0.00,,,-99.99,,2013-04-21 07:28:00,
2013-04-21 02:33:00,36.0,36.0,26.92,North,0,0.0,0.0,95,0.00,,,-99.99,,2013-04-21 07:33:00,
2013-04-21 02:38:00,36.0,36.0,26.92,North,0,0.0,0.0,95,0.00,,,-99.99,,2013-04-21 07:38:00,
2013-04-21 02:43:00,36.0,36.0,26.92,North,0,0.0,0.0,95,0.00,,,-99.99,,2013-04-21 07:43:00,
2013-04-21 02:48:00,36.0,36.0,26.92,North,0,0.0,0.0,95,0.00,,,-99.99,,2013-04-21 07:48:00,
2013-04-21 02:53:00,36.0,36.0,26.92,North,0,0.0,0.0,95,0.00,,,-99.99,,2013-04-21 07:53:00,
2013-04-21 02:58:00,36.0,36.0,26.92,North,0,0.0,0.0,95,0.00,,,-99.99,,2013-04-21 07:58:00,
2013-04-21 03:03:00,36.0,36.0,26.92,North,0,0.0,0.0,95,0.00,,,-99.99,,2013-04-21 08:03:00,
2013-04-21 03:08:00,36.0,36.0,26.91,North,0,0.0,0.0,95,0.00,,,-99.99,,2013-04-21 08:08:00,
2013-04-21 03:13:00,37.0,36.0,26.91,North,0,0.0,0.0,95,0.00,,,-99.99,,2013-04-21 08:13:00,
2013-04-21 03:18:00,37.0,36.0,26.91,North,0,0.0,0.0,95,0.00,,,-99.99,,2013-04-21 08:18:00,
2013-04-21 03:23:00,37.0,36.0,26.91,North,0,0.0,0.0,95,0.00,,,-99.99,,2013-04-21 08:23:00,
2013-04-21 03:28:00,36.0,36.0,26.91,North,0,0.0,0.0,95,0.00,,,-99.99,,2013-04-21 08:28:00,
2013-04-21 03:33:00,36.0,36.0,26.91,North,0,0.0,0.0,95,0.00,,,-99.99,,2013-04-21 08:33:00,
2013-04-21 03:38:00,35.0,34.0,26.92,North,0,0.0,0.0,95,0.00,,,-99.99,,2013-04-21 08:38:00,
2013-04-21 03:43:00,35.0,34.0,26.91,North,0,0.0,0.0,95,0.00,,,-99.99,,2013-04-21 08:43:00,
2013-04-21 03:48:00,35.0,34.0,26.91,North,0,0.0,0.0,95,0.00,,,-99.99,,2013-04-21 08:48:00,
2013-04-21 03:53:00,35.0,34.0,26.91,North,0,0.0,0.0,95,0.00,,,-99.99,,2013-04-21 08:53:00,
2013-04-21 03:58:00,35.0,34.0,26.92,North,0,0.0,0.0,96,0.00,,,-99.99,,2013-04-21 08:58:00,
2013-04-21 04:03:00,35.0,34.0,26.94,NW,309,19.0,23.0,95,0.00,,,-99.99,,2013-04-21 09:03:00,
2013-04-21 04:08:00,36.0,36.0,26.93,NW,306,12.0,15.0,95,0.00,,,-99.99,,2013-04-21 09:08:00,
2013-04-21 04:13:00,37.0,36.0,26.93,NW,312,15.0,18.0,95,0.00,,,-99.99,,2013-04-21 09:13:00,
2013-04-21 04:18:00,37.0,36.0,26.93,NW,313,14.0,15.0,95,0.00,,,-99.99,,2013-04-21 09:18:00,
2013-04-21 04:23:00,38.0,37.0,26.94,NW,326,13.0,14.0,95,0.00,,,-99.99,,2013-04-21 09:23:00,
2013-04-21 04:28:00,38.0,37.0,26.94,NW,323,12.0,13.0,95,0.00,,,-99.99,,2013-04-21 09:28:00,
2013-04-21 04:33:00,38.0,37.0,26.93,NW,317,11.0,11.0,95,0.00,,,-99.99,,2013-04-21 09:33:00,
2013-04-21 04:38:00,38.0,37.0,26.93,NW,326,8.0,9.0,96,0.00,,,-99.99,,2013-04-21 09:38:00,
2013-04-21 04:43:00,38.0,37.0,26.92,NNW,345,6.0,7.0,96,0.00,,,-99.99,,2013-04-21 09:43:00,
2013-04-21 04:48:00,38.0,37.0,26.92,NNW,336,6.0,7.0,96,0.00,,,-99.99,,2013-04-21 09:48:00,
2013-04-21 04:53:00,38.0,37.0,26.92,NNW,341,6.0,8.0,96,0.00,,,-99.99,,2013-04-21 09:53:00,
2013-04-21 04:58:00,38.0,37.0,26.92,NNW,343,6.0,6.0,96,0.00,,,-99.99,,2013-04-21 09:58:00,
2013-04-21 05:03:00,38.0,37.0,26.91,NNW,333,7.0,7.0,96,0.00,,,-99.99,,2013-04-21 10:03:00,
2013-04-21 05:08:00,38.0,37.0,26.92,NNW,337,8.0,9.0,96,0.00,,,-99.99,,2013-04-21 10:08:00,
2013-04-21 05:13:00,38.0,37.0,26.92,NNW,344,7.0,8.0,96,0.00,,,-99.99,,2013-04-21 10:13:00,
2013-04-21 05:18:00,38.0,37.0,26.93,South,172,2.0,5.0,96,0.00,,,-99.99,,2013-04-21 10:18:00,
2013-04-21 05:23:00,38.0,37.0,26.93,South,175,1.0,4.0,96,0.00,,,-99.99,,2013-04-21 10:23:00,
2013-04-21 05:28:00,38.0,37.0,26.93,North,0,0.0,0.0,96,0.00,,,-99.99,,2013-04-21 10:28:00,
2013-04-21 05:33:00,38.0,37.0,26.92,North,0,0.0,0.0,96,0.00,,,-99.99,,2013-04-21 10:33:00,
2013-04-21 05:38:00,38.0,37.0,26.92,North,0,0.0,0.0,96,0.00,,,-99.99,,2013-04-21 10:38:00,
2013-04-21 05:43:00,38.0,37.0,26.92,North,0,0.0,0.0,96,0.00,,,-99.99,,2013-04-21 10:43:00,
2013-04-21 05:48:00,38.0,37.0,26.93,South,179,5.0,6.0,97,0.00,,,-99.99,,2013-04-21 10:48:00,
2013-04-21 05:53:00,37.0,36.0,26.92,North,0,0.0,0.0,97,0.00,,,-99.99,,2013-04-21 10:53:00,
2013-04-21 05:58:00,37.0,36.0,26.92,North,0,0.0,0.0,97,0.00,,,-99.99,,2013-04-21 10:58:00,
2013-04-21 06:03:00,37.0,36.0,26.92,North,0,0.0,0.0,97,0.00,,,-99.99,,2013-04-21 11:03:00,
2013-04-21 06:08:00,37.0,36.0,26.92,North,0,0.0,0.0,97,0.00,,,-99.99,,2013-04-21 11:08:00,
2013-04-21 06:13:00,37.0,36.0,26.91,North,0,0.0,0.0,96,0.00,,,-99.99,,2013-04-21 11:13:00,
2013-04-21 06:18:00,37.0,36.0,26.91,North,0,0.0,0.0,97,0.00,,,-99.99,,2013-04-21 11:18:00,
2013-04-21 06:23:00,36.0,36.0,26.91,North,0,0.0,0.0,96,0.00,,,-99.99,,2013-04-21 11:23:00,
2013-04-21 06:28:00,37.0,36.0,26.90,North,0,0.0,0.0,97,0.00,,,-99.99,,2013-04-21 11:28:00,
2013-04-21 06:33:00,38.0,37.0,26.91,NNW,334,8.0,8.0,97,0.00,,,-99.99,,2013-04-21 11:33:00,
2013-04-21 06:38:00,38.0,37.0,26.91,SSW,212,7.0,10.0,97,0.00,,,-99.99,,2013-04-21 11:38:00,
2013-04-21 06:43:00,38.0,37.0,26.91,SW,214,6.0,8.0,96,0.00,,,-99.99,,2013-04-21 11:43:00,
2013-04-21 06:48:00,37.0,36.0,26.91,SW,217,6.0,7.0,96,0.00,,,-99.99,,2013-04-21 11:48:00,
2013-04-21 06:53:00,37.0,36.0,26.91,SSW,207,5.0,6.0,96,0.00,,,-99.99,,2013-04-21 11:53:00,
2013-04-21 06:58:00,37.0,36.0,26.91,WSW,238,7.0,10.0,97,0.00,,,-99.99,,2013-04-21 11:58:00,
2013-04-21 07:03:00,37.0,36.0,26.91,SW,226,7.0,9.0,97,0.00,,,-99.99,,2013-04-21 12:03:00,
2013-04-21 07:08:00,37.0,36.0,26.91,SW,228,6.0,8.0,97,0.00,,,-99.99,,2013-04-21 12:08:00,
2013-04-21 07:13:00,36.0,36.0,26.91,SW,217,2.0,4.0,97,0.00,,,-99.99,,2013-04-21 12:13:00,
2013-04-21 07:18:00,36.0,36.0,26.91,SSW,204,0.0,3.0,97,0.00,,,-99.99,,2013-04-21 12:18:00,
2013-04-21 07:23:00,36.0,36.0,26.91,North,0,0.0,0.0,97,0.00,,,-99.99,,2013-04-21 12:23:00,
2013-04-21 07:28:00,36.0,36.0,26.91,North,0,0.0,0.0,97,0.00,,,-99.99,,2013-04-21 12:28:00,
2013-04-21 07:33:00,37.0,36.0,26.91,SW,227,5.0,5.0,98,0.00,,,-99.99,,2013-04-21 12:33:00,
2013-04-21 07:38:00,37.0,36.0,26.91,SW,219,5.0,6.0,98,0.00,,,-99.99,,2013-04-21 12:38:00,
2013-04-21 07:43:00,38.0,37.0,26.91,SW,221,6.0,6.0,98,0.00,,,-99.99,,2013-04-21 12:43:00,
2013-04-21 07:48:00,38.0,37.0,26.91,SW,220,6.0,6.0,97,0.00,,,-99.99,,2013-04-21 12:48:00,
2013-04-21 07:53:00,39.0,37.0,26.92,WSW,237,6.0,7.0,97,0.00,,,-99.99,,2013-04-21 12:53:00,
2013-04-21 07:58:00,39.0,37.0,26.92,SW,226,6.0,7.0,97,0.00,,,-99.99,,2013-04-21 12:58:00,
2013-04-21 08:03:00,39.0,37.0,26.92,SW,217,6.0,7.0,97,0.00,,,-99.99,,2013-04-21 13:03:00,
2013-04-21 08:08:00,39.0,37.0,26.92,SW,233,6.0,7.0,97,0.00,,,-99.99,,2013-04-21 13:08:00,
2013-04-21 08:13:00,39.0,37.0,26.92,SW,223,5.0,6.0,97,0.00,,,-99.99,,2013-04-21 13:13:00,
2013-04-21 08:18:00,39.0,37.0,26.92,SW,235,6.0,7.0,97,0.00,,,-99.99,,2013-04-21 13:18:00,
2013-04-21 08:23:00,40.0,39.0,26.93,SW,234,5.0,7.0,97,0.00,,,-99.99,,2013-04-21 13:23:00,
2013-04-21 08:28:00,41.0,41.0,26.93,WSW,238,6.0,7.0,97,0.00,,,-99.99,,2013-04-21 13:28:00,
2013-04-21 08:33:00,41.0,41.0,26.94,WSW,240,5.0,7.0,97,0.00,,,-99.99,,2013-04-21 13:33:00,
2013-04-21 08:38:00,42.0,41.0,26.94,SW,220,6.0,8.0,97,0.00,,,-99.99,,2013-04-21 13:38:00,
2013-04-21 08:43:00,43.0,43.0,26.94,SW,226,7.0,8.0,96,0.00,,,-99.99,,2013-04-21 13:43:00,
2013-04-21 08:48:00,44.0,43.0,26.94,SW,230,8.0,9.0,95,0.00,,,-99.99,,2013-04-21 13:48:00,
2013-04-21 08:53:00,44.0,43.0,26.94,SW,234,7.0,9.0,95,0.00,,,-99.99,,2013-04-21 13:53:00,
2013-04-21 08:58:00,45.0,43.0,26.94,SW,219,7.0,9.0,95,0.00,,,-99.99,,2013-04-21 13:58:00,
2013-04-21 09:03:00,46.0,45.0,26.94,WSW,240,10.0,14.0,94,0.00,,,-99.99,,2013-04-21 14:03:00,
2013-04-21 09:08:00,47.0,45.0,26.94,WSW,240,12.0,13.0,93,0.00,,,-99.99,,2013-04-21 14:08:00,
2013-04-21 09:13:00,47.0,45.0,26.94,SW,231,10.0,12.0,93,0.00,,,-99.99,,2013-04-21 14:13:00,
2013-04-21 09:18:00,48.0,46.0,26.94,WSW,250,9.0,12.0,92,0.00,,,-99.99,,2013-04-21 14:18:00,
2013-04-21 09:23:00,48.0,46.0,26.94,SW,228,9.0,11.0,92,0.00,,,-99.99,,2013-04-21 14:23:00,
2013-04-21 09:28:00,49.0,46.0,26.94,SW,224,9.0,10.0,91,0.00,,,-99.99,,2013-04-21 14:28:00,
2013-04-21 09:33:00,50.0,46.0,26.94,WSW,255,10.0,12.0,90,0.00,,,-99.99,,2013-04-21 14:33:00,
2013-04-21 09:38:00,50.0,46.0,26.94,SW,219,8.0,10.0,90,0.00,,,-99.99,,2013-04-21 14:38:00,
2013-04-21 09:43:00,51.0,46.0,26.94,WSW,255,8.0,11.0,87,0.00,,,-99.99,,2013-04-21 14:43:00,
2013-04-21 09:48:00,51.0,46.0,26.94,WSW,255,7.0,11.0,86,0.00,,,-99.99,,2013-04-21 14:48:00,
2013-04-21 09:53:00,52.0,48.0,26.94,WSW,248,9.0,11.0,86,0.00,,,-99.99,,2013-04-21 14:53:00,
2013-04-21 09:58:00,52.0,48.0,26.94,WSW,247,8.0,10.0,85,0.00,,,-99.99,,2013-04-21 14:58:00,
2013-04-21 10:03:00,53.0,48.0,26.94,WSW,254,11.0,12.0,81,0.00,,,-99.99,,2013-04-21 15:03:00,
2013-04-21 10:08:00,54.0,48.0,26.94,WSW,247,8.0,11.0,81,0.00,,,-99.99,,2013-04-21 15:08:00,
2013-04-21 10:13:00,55.0,48.0,26.94,WSW,240,9.0,11.0,80,0.00,,,-99.99,,2013-04-21 15:13:00,
2013-04-21 10:18:00,55.0,48.0,26.95,WSW,244,8.0,10.0,78,0.00,,,-99.99,,2013-04-21 15:18:00,
2013-04-21 10:23:00,56.0,48.0,26.95,West,269,6.0,8.0,77,0.00,,,-99.99,,2013-04-21 15:23:00,
2013-04-21 10:28:00,58.0,50.0,26.94,NW,317,13.0,15.0,73,0.00,,,-99.99,,2013-04-21 15:28:00,
2013-04-21 10:33:00,58.0,48.0,26.95,WNW,302,15.0,17.0,71,0.00,,,-99.99,,2013-04-21 15:33:00,
2013-04-21 10:38:00,59.0,48.0,26.94,WNW,303,15.0,17.0,68,0.00,,,-99.99,,2013-04-21 15:38:00,
2013-04-21 10:43:00,59.0,48.0,26.94,WNW,299,15.0,19.0,66,0.00,,,-99.99,,2013-04-21 15:43:00,
2013-04-21 10:48:00,60.0,48.0,26.94,WNW,300,16.0,20.0,64,0.00,,,-99.99,,2013-04-21 15:48:00,
2013-04-21 10:53:00,60.0,48.0,26.94,NW,306,14.0,17.0,65,0.00,,,-99.99,,2013-04-21 15:53:00,
2013-04-21 10:58:00,60.0,48.0,26.94,NW,306,14.0,17.0,64,0.00,,,-99.99,,2013-04-21 15:58:00,
2013-04-21 11:03:00,60.0,48.0,26.94,WNW,300,13.0,16.0,64,0.00,,,-99.99,,2013-04-21 16:03:00,
2013-04-21 11:08:00,61.0,48.0,26.95,NW,306,14.0,16.0,61,0.00,,,-99.99,,2013-04-21 16:08:00,
2013-04-21 11:13:00,61.0,48.0,26.94,WNW,283,13.0,15.0,61,0.00,,,-99.99,,2013-04-21 16:13:00,
2013-04-21 11:18:00,61.0,46.0,26.94,WNW,295,14.0,17.0,60,0.00,,,-99.99,,2013-04-21 16:18:00,
2013-04-21 11:23:00,61.0,48.0,26.95,NW,310,12.0,15.0,61,0.00,,,-99.99,,2013-04-21 16:23:00,
2013-04-21 11:28:00,61.0,46.0,26.94,NW,313,13.0,16.0,60,0.00,,,-99.99,,2013-04-21 16:28:00,
2013-04-21 11:33:00,61.0,48.0,26.94,NW,312,14.0,16.0,61,0.00,,,-99.99,,2013-04-21 16:33:00,
2013-04-21 11:38:00,61.0,46.0,26.94,WNW,302,14.0,17.0,60,0.00,,,-99.99,,2013-04-21 16:38:00,
2013-04-21 11:43:00,62.0,48.0,26.94,NW,320,14.0,17.0,59,0.00,,,-99.99,,2013-04-21 16:43:00,
2013-04-21 11:48:00,62.0,48.0,26.94,WNW,299,12.0,15.0,60,0.00,,,-99.99,,2013-04-21 16:48:00,
2013-04-21 11:53:00,62.0,48.0,26.94,NNW,330,11.0,12.0,59,0.00,,,-99.99,,2013-04-21 16:53:00,
2013-04-21 11:58:00,62.0,48.0,26.94,WNW,293,9.0,13.0,60,0.00,,,-99.99,,2013-04-21 16:58:00,
2013-04-21 12:03:00,62.0,46.0,26.94,WNW,296,14.0,17.0,58,0.00,,,-99.99,,2013-04-21 17:03:00,
2013-04-21 12:08:00,63.0,48.0,26.94,NW,321,14.0,16.0,58,0.00,,,-99.99,,2013-04-21 17:08:00,
2013-04-21 12:13:00,63.0,48.0,26.94,NW,305,11.0,14.0,59,0.00,,,-99.99,,2013-04-21 17:13:00,
2013-04-21 12:18:00,63.0,48.0,26.94,NW,319,11.0,15.0,58,0.00,,,-99.99,,2013-04-21 17:18:00,
2013-04-21 12:23:00,63.0,48.0,26.93,NW,319,12.0,14.0,58,0.00,,,-99.99,,2013-04-21 17:23:00,
2013-04-21 12:28:00,63.0,46.0,26.93,NW,319,15.0,17.0,56,0.00,,,-99.99,,2013-04-21 17:28:00,
2013-04-21 12:33:00,63.0,48.0,26.93,NW,326,14.0,18.0,57,0.00,,,-99.99,,2013-04-21 17:33:00,
2013-04-21 12:38:00,64.0,48.0,26.93,WNW,298,12.0,15.0,56,0.00,,,-99.99,,2013-04-21 17:38:00,
2013-04-21 12:43:00,64.0,48.0,26.93,NW,326,8.0,10.0,57,0.00,,,-99.99,,2013-04-21 17:43:00,
2013-04-21 12:48:00,64.0,48.0,26.92,NW,314,12.0,14.0,56,0.00,,,-99.99,,2013-04-21 17:48:00,
2013-04-21 12:53:00,64.0,48.0,26.92,NW,312,11.0,13.0,56,0.00,,,-99.99,,2013-04-21 17:53:00,
2013-04-21 12:58:00,64.0,48.0,26.92,WNW,302,10.0,12.0,57,0.00,,,-99.99,,2013-04-21 17:58:00,
2013-04-21 13:03:00,65.0,48.0,26.92,WNW,288,9.0,12.0,56,0.00,,,-99.99,,2013-04-21 18:03:00,
2013-04-21 13:08:00,65.0,48.0,26.92,NNW,337,13.0,16.0,53,0.00,,,-99.99,,2013-04-21 18:08:00,
2013-04-21 13:13:00,65.0,48.0,26.92,North,7,13.0,15.0,54,0.00,,,-99.99,,2013-04-21 18:13:00,
2013-04-21 13:18:00,65.0,48.0,26.92,NNW,338,11.0,16.0,55,0.00,,,-99.99,,2013-04-21 18:18:00,
2013-04-21 13:23:00,65.0,48.0,26.92,NNW,345,12.0,14.0,54,0.00,,,-99.99,,2013-04-21 18:23:00,
2013-04-21 13:28:00,65.0,48.0,26.92,NW,321,13.0,15.0,54,0.00,,,-99.99,,2013-04-21 18:28:00,
2013-04-21 13:33:00,65.0,48.0,26.92,WNW,302,11.0,14.0,53,0.00,,,-99.99,,2013-04-21 18:33:00,
2013-04-21 13:38:00,66.0,48.0,26.91,WNW,296,9.0,13.0,53,0.00,,,-99.99,,2013-04-21 18:38:00,
2013-04-21 13:43:00,66.0,48.0,26.92,NNW,333,11.0,14.0,52,0.00,,,-99.99,,2013-04-21 18:43:00,
2013-04-21 13:48:00,66.0,48.0,26.91,NNW,338,12.0,14.0,52,0.00,,,-99.99,,2013-04-21 18:48:00,
2013-04-21 13:53:00,65.0,46.0,26.91,NNW,345,12.0,15.0,52,0.00,,,-99.99,,2013-04-21 18:53:00,
2013-04-21 13:58:00,65.0,46.0,26.91,NNW,327,12.0,14.0,51,0.00,,,-99.99,,2013-04-21 18:58:00,
2013-04-21 14:03:00,65.0,46.0,26.91,NW,312,12.0,14.0,52,0.00,,,-99.99,,2013-04-21 19:03:00,
2013-04-21 14:08:00,66.0,48.0,26.91,NW,323,10.0,11.0,52,0.00,,,-99.99,,2013-04-21 19:08:00,
2013-04-21 14:13:00,66.0,48.0,26.91,NNW,344,13.0,15.0,51,0.00,,,-99.99,,2013-04-21 19:13:00,
2013-04-21 14:18:00,66.0,48.0,26.91,North,353,12.0,15.0,52,0.00,,,-99.99,,2013-04-21 19:18:00,
2013-04-21 14:23:00,66.0,46.0,26.91,NNW,345,13.0,14.0,50,0.00,,,-99.99,,2013-04-21 19:23:00,
2013-04-21 14:28:00,66.0,46.0,26.91,NNW,338,12.0,15.0,50,0.00,,,-99.99,,2013-04-21 19:28:00,
2013-04-21 14:33:00,66.0,45.0,26.91,NW,319,12.0,17.0,46,0.00,,,-99.99,,2013-04-21 19:33:00,
2013-04-21 14:38:00,66.0,46.0,26.91,NW,314,12.0,15.0,49,0.00,,,-99.99,,2013-04-21 19:38:00,
2013-04-21 14:43:00,66.0,46.0,26.91,NW,319,13.0,16.0,48,0.00,,,-99.99,,2013-04-21 19:43:00,
2013-04-21 14:48:00,66.0,46.0,26.91,NW,305,11.0,14.0,48,0.00,,,-99.99,,2013-04-21 19:48:00,
2013-04-21 14:53:00,67.0,46.0,26.91,NW,320,12.0,13.0,46,0.00,,,-99.99,,2013-04-21 19:53:00,
2013-04-21 14:58:00,67.0,45.0,26.91,NW,320,12.0,14.0,45,0.00,,,-99.99,,2013-04-21 19:58:00,
2013-04-21 15:03:00,67.0,46.0,26.90,WNW,293,9.0,12.0,47,0.00,,,-99.99,,2013-04-21 20:03:00,
2013-04-21 15:08:00,67.0,46.0,26.90,NW,321,8.0,13.0,47,0.00,,,-99.99,,2013-04-21 20:08:00,
2013-04-21 15:13:00,68.0,46.0,26.90,North,0,12.0,13.0,47,0.00,,,-99.99,,2013-04-21 20:13:00,
2013-04-21 15:18:00,68.0,46.0,26.90,North,360,11.0,13.0,47,0.00,,,-99.99,,2013-04-21 20:18:00,
2013-04-21 15:23:00,68.0,46.0,26.90,WNW,298,10.0,12.0,45,0.00,,,-99.99,,2013-04-21 20:23:00,
2013-04-21 15:28:00,68.0,45.0,26.90,NW,306,12.0,16.0,43,0.00,,,-99.99,,2013-04-21 20:28:00,
2013-04-21 15:33:00,68.0,45.0,26.90,NNW,343,14.0,16.0,44,0.00,,,-99.99,,2013-04-21 20:33:00,
2013-04-21 15:38:00,67.0,46.0,26.90,NNW,343,11.0,13.0,47,0.00,,,-99.99,,2013-04-21 20:38:00,
2013-04-21 15:43:00,67.0,46.0,26.90,West,269,6.0,8.0,48,0.00,,,-99.99,,2013-04-21 20:43:00,
2013-04-21 15:48:00,67.0,46.0,26.90,NNE,16,6.0,7.0,49,0.00,,,-99.99,,2013-04-21 20:48:00,
2013-04-21 15:53:00,67.0,46.0,26.90,North,358,8.0,12.0,47,0.00,,,-99.99,,2013-04-21 20:53:00,
2013-04-21 15:58:00,68.0,46.0,26.89,NNW,345,11.0,14.0,47,0.00,,,-99.99,,2013-04-21 20:58:00,
2013-04-21 16:03:00,68.0,46.0,26.89,North,351,12.0,15.0,46,0.00,,,-99.99,,2013-04-21 21:03:00,
2013-04-21 16:08:00,68.0,46.0,26.89,NNW,333,11.0,13.0,46,0.00,,,-99.99,,2013-04-21 21:08:00,
2013-04-21 16:13:00,68.0,46.0,26.89,West,274,5.0,7.0,46,0.00,,,-99.99,,2013-04-21 21:13:00,
2013-04-21 16:18:00,68.0,46.0,26.89,NW,309,8.0,10.0,45,0.00,,,-99.99,,2013-04-21 21:18:00,
2013-04-21 16:23:00,68.0,45.0,26.89,WNW,299,8.0,11.0,43,0.00,,,-99.99,,2013-04-21 21:23:00,
2013-04-21 16:28:00,67.0,45.0,26.89,North,1,12.0,14.0,45,0.00,,,-99.99,,2013-04-21 21:28:00,
2013-04-21 16:33:00,67.0,45.0,26.89,NNW,337,11.0,13.0,45,0.00,,,-99.99,,2013-04-21 21:33:00,
2013-04-21 16:38:00,67.0,46.0,26.89,North,6,8.0,11.0,46,0.00,,,-99.99,,2013-04-21 21:38:00,
2013-04-21 16:43:00,67.0,45.0,26.89,NNW,327,9.0,13.0,45,0.00,,,-99.99,,2013-04-21 21:43:00,
2013-04-21 16:48:00,67.0,45.0,26.89,NW,320,11.0,13.0,45,0.00,,,-99.99,,2013-04-21 21:48:00,
2013-04-21 16:53:00,67.0,45.0,26.89,NW,314,9.0,11.0,44,0.00,,,-99.99,,2013-04-21 21:53:00,
2013-04-21 16:58:00,67.0,45.0,26.89,NNW,337,10.0,12.0,45,0.00,,,-99.99,,2013-04-21 21:58:00,
2013-04-21 17:03:00,67.0,46.0,26.89,NW,324,8.0,13.0,46,0.00,,,-99.99,,2013-04-21 22:03:00,
2013-04-21 17:08:00,67.0,46.0,26.89,NNW,329,4.0,8.0,46,0.00,,,-99.99,,2013-04-21 22:08:00,
2013-04-21 17:13:00,67.0,45.0,26.89,WNW,298,10.0,12.0,45,0.00,,,-99.99,,2013-04-21 22:13:00,
2013-04-21 17:18:00,66.0,45.0,26.89,NW,307,8.0,10.0,45,0.00,,,-99.99,,2013-04-21 22:18:00,
2013-04-21 17:23:00,66.0,45.0,26.89,NW,312,10.0,11.0,45,0.00,,,-99.99,,2013-04-21 22:23:00,
2013-04-21 17:28:00,67.0,45.0,26.89,NW,313,8.0,9.0,45,0.00,,,-99.99,,2013-04-21 22:28:00,
2013-04-21 17:33:00,67.0,45.0,26.89,NW,323,7.0,9.0,45,0.00,,,-99.99,,2013-04-21 22:33:00,
2013-04-21 17:38:00,67.0,46.0,26.89,NW,323,10.0,11.0,46,0.00,,,-99.99,,2013-04-21 22:38:00,
2013-04-21 17:43:00,66.0,43.0,26.89,NW,326,10.0,11.0,44,0.00,,,-99.99,,2013-04-21 22:43:00,
2013-04-21 17:48:00,66.0,45.0,26.89,NW,321,9.0,10.0,46,0.00,,,-99.99,,2013-04-21 22:48:00,
2013-04-21 17:53:00,66.0,45.0,26.89,NNW,333,7.0,8.0,46,0.00,,,-99.99,,2013-04-21 22:53:00,
2013-04-21 17:58:00,66.0,45.0,26.89,NNW,330,4.0,5.0,45,0.00,,,-99.99,,2013-04-21 22:58:00,
2013-04-21 18:03:00,66.0,45.0,26.89,NW,323,8.0,11.0,45,0.00,,,-99.99,,2013-04-21 23:03:00,
2013-04-21 18:08:00,67.0,46.0,26.89,NW,320,6.0,7.0,46,0.00,,,-99.99,,2013-04-21 23:08:00,
2013-04-21 18:13:00,67.0,45.0,26.90,NW,316,8.0,10.0,44,0.00,,,-99.99,,2013-04-21 23:13:00,
2013-04-21 18:18:00,67.0,45.0,26.89,NW,307,8.0,9.0,45,0.00,,,-99.99,,2013-04-21 23:18:00,
2013-04-21 18:23:00,67.0,45.0,26.90,NNW,330,6.0,8.0,44,0.00,,,-99.99,,2013-04-21 23:23:00,
2013-04-21 18:28:00,67.0,45.0,26.90,NNW,341,8.0,10.0,44,0.00,,,-99.99,,2013-04-21 23:28:00,
2013-04-21 18:33:00,68.0,45.0,26.90,NNW,343,9.0,10.0,44,0.00,,,-99.99,,2013-04-21 23:33:00,
2013-04-21 18:38:00,67.0,45.0,26.90,NNW,331,7.0,9.0,44,0.00,,,-99.99,,2013-04-21 23:38:00,
2013-04-21 18:43:00,67.0,45.0,26.90,NNW,341,4.0,5.0,44,0.00,,,-99.99,,2013-04-21 23:43:00,
2013-04-21 18:48:00,67.0,45.0,26.90,NNW,345,5.0,6.0,44,0.00,,,-99.99,,2013-04-21 23:48:00,
2013-04-21 18:53:00,67.0,45.0,26.90,NNW,344,7.0,8.0,45,0.00,,,-99.99,,2013-04-21 23:53:00,
2013-04-21 18:58:00,67.0,45.0,26.90,NNW,345,8.0,9.0,44,0.00,,,-99.99,,2013-04-21 23:58:00,
2013-04-21 19:03:00,67.0,45.0,26.90,NNE,17,7.0,8.0,44,0.00,,,-99.99,,2013-04-22 00:03:00,
2013-04-21 19:08:00,67.0,45.0,26.90,NNE,21,3.0,5.0,45,0.00,,,-99.99,,2013-04-22 00:08:00,
2013-04-21 19:13:00,66.0,45.0,26.90,North,4,8.0,10.0,45,0.00,,,-99.99,,2013-04-22 00:13:00,
2013-04-21 19:18:00,66.0,45.0,26.90,North,350,10.0,12.0,45,0.00,,,-99.99,,2013-04-22 00:18:00,
2013-04-21 19:23:00,66.0,45.0,26.90,NNW,333,4.0,5.0,45,0.00,,,-99.99,,2013-04-22 00:23:00,
2013-04-21 19:28:00,66.0,45.0,26.90,North,0,6.0,7.0,45,0.00,,,-99.99,,2013-04-22 00:28:00,
2013-04-21 19:33:00,66.0,45.0,26.90,North,3,6.0,8.0,45,0.00,,,-99.99,,2013-04-22 00:33:00,
2013-04-21 19:38:00,66.0,45.0,26.90,North,11,5.0,7.0,46,0.00,,,-99.99,,2013-04-22 00:38:00,
2013-04-21 19:43:00,65.0,45.0,26.90,NNE,28,8.0,8.0,47,0.00,,,-99.99,,2013-04-22 00:43:00,
2013-04-21 19:48:00,64.0,45.0,26.90,NNE,30,8.0,8.0,49,0.00,,,-99.99,,2013-04-22 00:48:00,
2013-04-21 19:53:00,63.0,45.0,26.90,NE,37,8.0,8.0,51,0.00,,,-99.99,,2013-04-22 00:53:00,
2013-04-21 19:58:00,62.0,45.0,26.90,NE,37,7.0,8.0,52,0.00,,,-99.99,,2013-04-22 00:58:00,
2013-04-21 20:03:00,61.0,45.0,26.90,NE,37,7.0,7.0,53,0.00,,,-99.99,,2013-04-22 01:03:00,
2013-04-21 20:08:00,60.0,43.0,26.91,NE,41,7.0,7.0,54,0.00,,,-99.99,,2013-04-22 01:08:00,
2013-04-21 20:13:00,59.0,43.0,26.90,NE,49,6.0,7.0,55,0.00,,,-99.99,,2013-04-22 01:13:00,
2013-04-21 20:18:00,59.0,43.0,26.91,NE,34,10.0,13.0,55,0.00,,,-99.99,,2013-04-22 01:18:00,
2013-04-21 20:23:00,59.0,45.0,26.91,NNE,32,12.0,15.0,57,0.00,,,-99.99,,2013-04-22 01:23:00,
2013-04-21 20:28:00,58.0,43.0,26.91,NE,44,10.0,11.0,57,0.00,,,-99.99,,2013-04-22 01:28:00,
2013-04-21 20:33:00,58.0,43.0,26.91,NE,42,9.0,11.0,58,0.00,,,-99.99,,2013-04-22 01:33:00,
2013-04-21 20:38:00,58.0,45.0,26.91,NE,38,9.0,11.0,60,0.00,,,-99.99,,2013-04-22 01:38:00,
2013-04-21 20:43:00,57.0,43.0,26.91,NE,41,10.0,11.0,61,0.00,,,-99.99,,2013-04-22 01:43:00,
2013-04-21 20:48:00,57.0,45.0,26.91,NE,51,10.0,11.0,62,0.00,,,-99.99,,2013-04-22 01:48:00,
2013-04-21 20:53:00,57.0,45.0,26.92,ENE,58,10.0,12.0,62,0.00,,,-99.99,,2013-04-22 01:53:00,
2013-04-21 20:58:00,57.0,45.0,26.92,NE,56,12.0,14.0,62,0.00,,,-99.99,,2013-04-22 01:58:00,
2013-04-21 21:03:00,57.0,45.0,26.92,ENE,62,12.0,14.0,62,0.00,,,-99.99,,2013-04-22 02:03:00,
2013-04-21 21:08:00,57.0,45.0,26.92,NE,54,13.0,15.0,62,0.00,,,-99.99,,2013-04-22 02:08:00,
2013-04-21 21:13:00,57.0,45.0,26.92,NE,54,16.0,19.0,63,0.00,,,-99.99,,2013-04-22 02:13:00,
2013-04-21 21:18:00,57.0,45.0,26.92,NE,47,16.0,20.0,63,0.00,,,-99.99,,2013-04-22 02:18:00,
2013-04-21 21:23:00,57.0,45.0,26.92,NE,51,16.0,19.0,64,0.00,,,-99.99,,2013-04-22 02:23:00,
2013-04-21 21:28:00,56.0,45.0,26.93,NE,54,16.0,19.0,65,0.00,,,-99.99,,2013-04-22 02:28:00,
2013-04-21 21:33:00,56.0,45.0,26.93,NE,52,16.0,19.0,66,0.00,,,-99.99,,2013-04-22 02:33:00,
2013-04-21 21:38:00,56.0,45.0,26.93,ENE,62,15.0,18.0,67,0.00,,,-99.99,,2013-04-22 02:38:00,
2013-04-21 21:43:00,55.0,45.0,26.93,NE,54,14.0,17.0,67,0.00,,,-99.99,,2013-04-22 02:43:00,
2013-04-21 21:48:00,55.0,45.0,26.94,NE,49,14.0,16.0,67,0.00,,,-99.99,,2013-04-22 02:48:00,
2013-04-21 21:53:00,55.0,45.0,26.95,NNE,28,12.0,16.0,68,0.00,,,-99.99,,2013-04-22 02:53:00,
2013-04-21 21:58:00,55.0,45.0,26.96,NNE,25,11.0,13.0,69,0.00,,,-99.99,,2013-04-22 02:58:00,
2013-04-21 22:03:00,54.0,45.0,26.96,NNE,27,11.0,13.0,69,0.00,,,-99.99,,2013-04-22 03:03:00,
2013-04-21 22:08:00,54.0,45.0,26.96,NE,35,13.0,16.0,70,0.00,,,-99.99,,2013-04-22 03:08:00,
2013-04-21 22:13:00,54.0,45.0,26.97,ENE,62,15.0,17.0,71,0.00,,,-99.99,,2013-04-22 03:13:00,
2013-04-21 22:18:00,54.0,45.0,26.97,NE,49,14.0,16.0,71,0.00,,,-99.99,,2013-04-22 03:18:00,
2013-04-21 22:23:00,54.0,45.0,26.97,ENE,59,12.0,14.0,72,0.00,,,-99.99,,2013-04-22 03:23:00,
2013-04-21 22:28:00,54.0,45.0,26.97,ENE,66,11.0,13.0,72,0.00,,,-99.99,,2013-04-22 03:28:00,
2013-04-21 22:33:00,54.0,46.0,26.97,East,89,8.0,10.0,73,0.00,,,-99.99,,2013-04-22 03:33:00,
2013-04-21 22:38:00,53.0,45.0,26.98,East,83,6.0,8.0,74,0.00,,,-99.99,,2013-04-22 03:38:00,
2013-04-21 22:43:00,53.0,45.0,26.98,ESE,118,6.0,9.0,75,0.00,,,-99.99,,2013-04-22 03:43:00,
2013-04-21 22:48:00,53.0,45.0,26.99,NE,47,5.0,6.0,75,0.00,,,-99.99,,2013-04-22 03:48:00,
2013-04-21 22:53:00,53.0,46.0,26.98,NE,49,11.0,12.0,76,0.00,,,-99.99,,2013-04-22 03:53:00,
2013-04-21 22:58:00,52.0,45.0,26.98,ENE,69,9.0,11.0,78,0.00,,,-99.99,,2013-04-22 03:58:00,
2013-04-21 23:03:00,52.0,45.0,26.98,NE,45,12.0,13.0,78,0.00,,,-99.99,,2013-04-22 04:03:00,
2013-04-21 23:08:00,52.0,46.0,26.98,NE,48,12.0,13.0,79,0.00,,,-99.99,,2013-04-22 04:08:00,
2013-04-21 23:13:00,51.0,45.0,26.97,NE,56,12.0,15.0,80,0.00,,,-99.99,,2013-04-22 04:13:00,
2013-04-21 23:18:00,51.0,45.0,26.97,NE,54,14.0,17.0,81,0.00,,,-99.99,,2013-04-22 04:18:00,
2013-04-21 23:23:00,51.0,46.0,26.97,NE,52,15.0,18.0,82,0.00,,,-99.99,,2013-04-22 04:23:00,
2013-04-21 23:28:00,50.0,45.0,26.96,NE,45,17.0,20.0,84,0.00,,,-99.99,,2013-04-22 04:28:00,
2013-04-21 23:33:00,50.0,46.0,26.96,NE,51,18.0,21.0,85,0.00,,,-99.99,,2013-04-22 04:33:00,
2013-04-21 23:38:00,50.0,46.0,26.96,ENE,66,16.0,19.0,87,0.00,,,-99.99,,2013-04-22 04:38:00,
2013-04-21 23:43:00,50.0,46.0,26.95,ENE,69,15.0,18.0,87,0.00,,,-99.99,,2013-04-22 04:43:00,
2013-04-21 23:48:00,49.0,46.0,26.95,ENE,63,16.0,19.0,89,0.00,,,-99.99,,2013-04-22 04:48:00,
2013-04-21 23:53:00,49.0,46.0,26.95,ENE,72,16.0,19.0,89,0.00,,,-99.99,,2013-04-22 04:53:00,
2013-04-21 23:58:00,49.0,46.0,26.95,East,85,16.0,18.0,90,0.00,,,-99.99,,2013-04-22 04:58:00,